Terminal Aerodrome Forecast
Issued by NWS Cleveland, OH

Home | Current Version | Previous Version | Text Only | Print | Product List | Glossary On
Versions: 1 2 3 4 5 6 7 8 9 10 11 12 13 14 15 16 17 18 19 20 21
000
FTUS41 KCLE 132332
TAFCAK
TAF
KCAK 132332Z 1400/1424 16010KT 3SM -SN BKN025
     FM140100 18009KT 1SM -SN OVC010
      TEMPO 1401/1405 3/4SM -SN OVC007
     FM140800 36011KT 3SM -SHSN OVC010
     FM141200 33012KT P6SM BKN015=

USA.gov is the U.S. government's official web portal to all federal, state and local government web resources and services.